Time;durP1;ratioP1;P1;durP2;ratioP2;P2;SDS_P1;SDS_P2;PMS_P1;PMS_P2;Temp;Humidity;BMP_temperature;BMP_pressure;BME280_temperature;BME280_humidity;BME280_pressure;Samples;Min_cycle;Max_cycle;Signal;HPM_P1;HPM_P2
2022/11/25 05:00:58;;;;;;;8.20;4.17;;;3.20;99.90;;;;;;5734354;23;20571;-73
2022/11/25 05:03:25;;;;;;;10.17;3.90;;;3.30;99.90;;;;;;4950398;29;20814;-73
2022/11/25 05:05:51;;;;;;;8.67;5.40;;;3.30;99.90;;;;;;4950578;29;20965;-73
2022/11/25 05:08:18;;;;;;;8.03;5.13;;;3.30;99.90;;;;;;4951213;29;20472;-73
2022/11/25 05:10:45;;;;;;;7.73;5.40;;;3.30;99.90;;;;;;4950891;28;20815;-73
2022/11/25 05:13:12;;;;;;;9.90;6.20;;;3.30;99.90;;;;;;4950314;29;20469;-73
2022/11/25 05:15:38;;;;;;;6.97;4.50;;;3.30;99.90;;;;;;4951019;29;20453;-73
2022/11/25 05:18:06;;;;;;;9.30;4.90;;;3.30;99.90;;;;;;4950961;29;20489;-73
2022/11/25 05:20:33;;;;;;;5.20;4.50;;;3.30;99.90;;;;;;4949339;29;20853;-72
2022/11/25 05:23:00;;;;;;;8.33;4.70;;;3.30;99.90;;;;;;4951092;29;20450;-73
2022/11/25 05:25:27;;;;;;;7.03;5.27;;;3.30;99.90;;;;;;4951309;29;20461;-74
2022/11/25 05:27:53;;;;;;;5.80;4.53;;;3.30;99.90;;;;;;4949237;29;20454;-66
2022/11/25 05:30:20;;;;;;;7.70;4.87;;;3.30;99.90;;;;;;4946425;29;20457;-66
2022/11/25 05:32:47;;;;;;;5.83;4.60;;;3.20;99.90;;;;;;4946874;29;20458;-66
2022/11/25 05:35:15;;;;;;;5.97;4.50;;;3.20;99.90;;;;;;4947940;29;20465;-66
2022/11/25 05:37:42;;;;;;;8.63;4.60;;;3.20;99.90;;;;;;4947489;29;20493;-66
2022/11/25 05:40:10;;;;;;;7.10;4.30;;;3.20;99.90;;;;;;4948111;29;20473;-77
2022/11/25 05:42:37;;;;;;;6.60;4.07;;;3.20;99.90;;;;;;4948080;28;20508;-76
2022/11/25 05:45:05;;;;;;;7.50;4.50;;;3.20;99.90;;;;;;4949203;29;20465;-76
2022/11/25 05:47:31;;;;;;;9.87;4.77;;;3.10;99.90;;;;;;4948947;29;20454;-76
2022/11/25 05:49:58;;;;;;;6.37;4.60;;;3.20;99.90;;;;;;4948810;29;20461;-77
2022/11/25 05:52:27;;;;;;;7.03;4.90;;;3.20;99.90;;;;;;4948434;28;20489;-77
2022/11/25 05:54:53;;;;;;;7.80;4.83;;;3.20;99.90;;;;;;4950313;28;21098;-78
2022/11/25 05:57:20;;;;;;;15.83;5.30;;;3.20;99.90;;;;;;4949144;29;21092;-78
2022/11/25 05:59:47;;;;;;;6.67;4.83;;;3.10;99.90;;;;;;4948493;29;21341;-77
2022/11/25 06:02:14;;;;;;;7.23;4.87;;;3.20;99.90;;;;;;4947915;28;20497;-77
2022/11/25 06:04:40;;;;;;;10.37;5.00;;;3.10;99.90;;;;;;4948584;29;20844;-77
2022/11/25 06:07:07;;;;;;;13.37;5.27;;;3.10;99.90;;;;;;4947657;29;20856;-77
2022/11/25 06:09:36;;;;;;;9.63;4.73;;;3.20;99.90;;;;;;4947288;29;20465;-77
2022/11/25 06:12:02;;;;;;;7.53;5.03;;;3.20;99.90;;;;;;4947423;28;20486;-77
2022/11/25 06:14:29;;;;;;;8.87;5.20;;;3.10;99.90;;;;;;4947717;29;20461;-77
2022/11/25 06:16:56;;;;;;;6.83;4.43;;;3.20;99.90;;;;;;4948005;29;21029;-77
2022/11/25 06:19:23;;;;;;;8.20;5.23;;;3.20;99.90;;;;;;4948167;29;20457;-77
2022/11/25 06:21:49;;;;;;;7.63;4.50;;;3.20;99.90;;;;;;4946798;28;20477;-77
2022/11/25 06:24:16;;;;;;;7.90;5.90;;;3.20;99.90;;;;;;4947946;29;20462;-77
2022/11/25 06:26:44;;;;;;;9.70;6.73;;;3.20;99.90;;;;;;4948027;29;20460;-77
2022/11/25 06:29:11;;;;;;;10.57;6.00;;;3.20;99.90;;;;;;4948264;29;20461;-78
2022/11/25 06:31:38;;;;;;;11.37;6.23;;;3.20;99.90;;;;;;4946662;28;20493;-77
2022/11/25 06:34:08;;;;;;;14.43;7.23;;;3.20;99.90;;;;;;4947565;28;20461;-77
2022/11/25 06:36:34;;;;;;;8.67;5.50;;;3.20;99.90;;;;;;4947242;29;20473;-77
2022/11/25 06:39:01;;;;;;;12.60;7.83;;;3.20;99.90;;;;;;4948109;29;20568;-77
2022/11/25 06:41:28;;;;;;;12.83;6.80;;;3.20;99.90;;;;;;4948398;28;20477;-78
2022/11/25 06:43:56;;;;;;;7.73;6.17;;;3.20;99.90;;;;;;4947136;29;20464;-75
2022/11/25 06:46:23;;;;;;;10.07;5.67;;;3.20;99.90;;;;;;4947168;29;20457;-75
2022/11/25 06:48:50;;;;;;;10.13;6.23;;;3.20;99.90;;;;;;4947365;29;20474;-76
2022/11/25 06:51:17;;;;;;;11.20;6.60;;;3.30;99.90;;;;;;4947698;28;20477;-76
2022/11/25 06:53:44;;;;;;;12.17;6.40;;;3.30;99.90;;;;;;4947366;29;20474;-80
2022/11/25 06:56:13;;;;;;;7.67;6.10;;;3.20;99.90;;;;;;4948999;29;20464;-77
2022/11/25 06:58:41;;;;;;;10.00;6.60;;;3.20;99.90;;;;;;4949500;29;20497;-77
2022/11/25 07:01:13;;;;;;;11.57;6.20;;;3.30;99.90;;;;;;4949044;28;20586;-78
2022/11/25 07:03:40;;;;;;;26.37;7.90;;;3.20;99.90;;;;;;4948770;29;20462;-78
2022/11/25 07:06:07;;;;;;;14.10;6.13;;;3.20;99.90;;;;;;4948863;28;20454;-77
2022/11/25 07:08:34;;;;;;;8.43;6.40;;;3.20;99.90;;;;;;4949351;29;20457;-77
2022/11/25 07:11:05;;;;;;;9.30;6.30;;;3.20;99.90;;;;;;4949104;29;20485;-77
2022/11/25 07:13:32;;;;;;;10.97;5.70;;;3.20;99.90;;;;;;4948313;29;20465;-77
2022/11/25 07:16:02;;;;;;;11.17;5.80;;;3.20;99.90;;;;;;4948942;29;20453;-77
2022/11/25 07:18:31;;;;;;;7.27;4.63;;;3.20;99.90;;;;;;4949175;29;20501;-77
2022/11/25 07:21:04;;;;;;;10.43;5.93;;;3.20;99.90;;;;;;4950349;28;20504;-77
2022/11/25 07:23:31;;;;;;;14.10;7.63;;;3.20;99.90;;;;;;4951263;29;20458;-77
2022/11/25 07:26:02;;;;;;;15.17;8.17;;;3.30;99.90;;;;;;4951624;29;20491;-77
2022/11/25 07:28:28;;;;;;;12.30;7.57;;;3.20;99.90;;;;;;4952438;29;20472;-77
2022/11/25 07:30:55;;;;;;;10.27;5.80;;;3.30;99.90;;;;;;4952928;28;20483;-77
2022/11/25 07:33:22;;;;;;;9.00;5.63;;;3.30;99.90;;;;;;4951762;29;20457;-77
2022/11/25 07:35:50;;;;;;;9.03;5.80;;;3.30;99.90;;;;;;4951888;29;20458;-77
2022/11/25 07:38:17;;;;;;;8.27;5.80;;;3.30;99.90;;;;;;4951263;29;20501;-77
2022/11/25 07:40:44;;;;;;;9.97;6.07;;;3.30;99.90;;;;;;4951958;29;20481;-77
2022/11/25 07:43:10;;;;;;;18.27;13.60;;;3.30;99.90;;;;;;4951153;29;20853;-77
2022/11/25 07:45:37;;;;;;;33.57;22.47;;;3.30;99.90;;;;;;4951184;29;20461;-77
2022/11/25 07:48:05;;;;;;;27.60;20.30;;;3.20;99.90;;;;;;4949787;28;20457;-77
2022/11/25 07:50:32;;;;;;;22.40;16.93;;;3.10;99.90;;;;;;4948568;28;20465;-77
2022/11/25 07:53:01;;;;;;;21.97;14.27;;;3.10;99.90;;;;;;4949142;29;20946;-78
2022/11/25 07:55:27;;;;;;;20.20;13.73;;;3.20;99.90;;;;;;4950121;29;20464;-78
2022/11/25 07:57:54;;;;;;;21.73;13.70;;;3.10;99.90;;;;;;4949728;29;20496;-78
2022/11/25 08:00:22;;;;;;;28.00;13.87;;;3.10;99.90;;;;;;4949682;28;20462;-78
2022/11/25 08:02:49;;;;;;;23.60;14.77;;;3.10;99.90;;;;;;4949314;29;20470;-78
2022/11/25 08:05:16;;;;;;;22.07;15.30;;;3.10;99.90;;;;;;4950264;29;20472;-78
2022/11/25 08:07:43;;;;;;;21.57;14.07;;;3.20;99.90;;;;;;4950117;28;21229;-78
2022/11/25 08:10:11;;;;;;;23.80;15.57;;;3.20;99.90;;;;;;4950112;29;20456;-78
2022/11/25 08:12:38;;;;;;;31.87;24.33;;;3.30;99.90;;;;;;4949455;28;20508;-78
2022/11/25 08:15:05;;;;;;;28.97;20.53;;;3.40;99.90;;;;;;4949997;29;20469;-78
2022/11/25 08:17:33;;;;;;;22.30;16.60;;;3.50;99.90;;;;;;4950044;28;20500;-78
2022/11/25 08:20:00;;;;;;;27.97;19.97;;;3.60;99.90;;;;;;4949934;29;20462;-78
2022/11/25 08:22:27;;;;;;;33.37;21.10;;;3.70;99.90;;;;;;4949137;28;20516;-78
2022/11/25 08:24:54;;;;;;;40.23;26.43;;;3.80;99.90;;;;;;4950103;29;20464;-78
2022/11/25 08:27:22;;;;;;;20.73;14.03;;;3.90;99.90;;;;;;4949957;29;20453;-78
2022/11/25 08:29:49;;;;;;;19.60;13.00;;;3.90;99.90;;;;;;4950390;29;20457;-78
2022/11/25 08:32:16;;;;;;;23.30;13.97;;;3.90;99.90;;;;;;4948931;28;20473;-78
2022/11/25 08:34:43;;;;;;;27.23;19.40;;;4.00;99.90;;;;;;4949950;29;20834;-77
2022/11/25 08:37:10;;;;;;;26.80;16.60;;;4.00;99.90;;;;;;4949705;29;20458;-77
2022/11/25 08:39:36;;;;;;;20.00;13.40;;;4.10;99.90;;;;;;4950178;29;20831;-77
2022/11/25 08:42:04;;;;;;;22.93;13.80;;;4.20;99.90;;;;;;4948831;28;20871;-77
2022/11/25 08:44:33;;;;;;;25.77;12.83;;;4.20;99.90;;;;;;4950049;29;20461;-77
2022/11/25 08:47:00;;;;;;;21.57;13.73;;;4.30;99.90;;;;;;4950323;29;20828;-77
2022/11/25 08:49:29;;;;;;;22.03;13.70;;;4.30;99.90;;;;;;4949953;28;20464;-77
2022/11/25 08:51:56;;;;;;;16.73;13.10;;;4.40;99.90;;;;;;4949837;28;20477;-77
2022/11/25 08:54:22;;;;;;;16.03;11.10;;;4.50;99.90;;;;;;4950797;28;21238;-77
2022/11/25 08:56:49;;;;;;;17.03;10.30;;;4.50;99.90;;;;;;4950819;29;20465;-78
2022/11/25 08:59:16;;;;;;;12.33;8.20;;;4.60;99.90;;;;;;4942810;29;20493;-77
2022/11/25 09:01:44;;;;;;;17.60;10.83;;;4.60;99.90;;;;;;4951003;28;21024;-78
2022/11/25 09:04:11;;;;;;;18.90;10.50;;;4.70;99.90;;;;;;4950984;29;20465;-77
2022/11/25 09:06:39;;;;;;;13.40;9.97;;;4.70;99.90;;;;;;4950889;29;20453;-77
2022/11/25 09:09:05;;;;;;;21.97;11.40;;;4.70;99.90;;;;;;4950480;29;20457;-77
2022/11/25 09:11:32;;;;;;;20.87;10.50;;;4.70;99.90;;;;;;4949399;29;20483;-78
2022/11/25 09:13:59;;;;;;;22.33;12.13;;;4.70;99.90;;;;;;4949278;29;20457;-77
2022/11/25 09:16:26;;;;;;;20.67;10.17;;;4.70;99.90;;;;;;4950112;29;20465;-78
2022/11/25 09:18:54;;;;;;;20.60;10.13;;;4.60;99.90;;;;;;4949425;29;20924;-77
2022/11/25 09:21:21;;;;;;;18.30;10.67;;;4.50;99.90;;;;;;4950226;29;20843;-78
2022/11/25 09:23:51;;;;;;;22.70;11.03;;;4.60;99.90;;;;;;4949515;29;20841;-77
2022/11/25 09:26:21;;;;;;;18.90;10.93;;;4.60;99.90;;;;;;4950211;29;20469;-77
2022/11/25 09:28:48;;;;;;;15.03;9.40;;;4.70;99.90;;;;;;4949388;29;20520;-77
2022/11/25 09:31:15;;;;;;;16.63;11.57;;;4.70;99.90;;;;;;4949536;28;20489;-77
2022/11/25 09:33:42;;;;;;;21.27;12.73;;;4.80;99.90;;;;;;4949696;29;20814;-77
2022/11/25 09:36:11;;;;;;;22.63;13.27;;;5.00;99.90;;;;;;4951780;29;20460;-77
2022/11/25 09:38:38;;;;;;;24.13;14.10;;;5.00;99.90;;;;;;4950639;29;20490;-77
2022/11/25 09:41:14;;;;;;;20.60;13.60;;;5.10;99.90;;;;;;4951550;28;20473;-77
2022/11/25 09:46:50;;;;;;;19.77;12.77;;;5.30;99.90;;;;;;4950589;29;20504;-77
2022/11/25 09:49:47;;;;;;;24.00;13.97;;;5.40;99.90;;;;;;4950914;29;20802;-77
2022/11/25 09:52:23;;;;;;;25.50;15.27;;;5.50;99.90;;;;;;4938889;29;20485;-77
2022/11/25 09:54:55;;;;;;;21.90;12.50;;;5.60;99.90;;;;;;4950277;29;20441;-77
2022/11/25 09:57:27;;;;;;;24.57;14.00;;;5.70;99.90;;;;;;4950678;29;20460;-78
2022/11/25 10:00:02;;;;;;;19.87;12.70;;;5.80;99.90;;;;;;4951094;29;20465;-77
2022/11/25 10:02:35;;;;;;;20.45;13.02;;;5.80;99.90;;;;;;4950095;29;20458;-78
2022/11/25 10:05:06;;;;;;;21.47;12.37;;;6.00;99.90;;;;;;4951507;29;20206;-77
2022/11/25 10:07:42;;;;;;;18.80;11.67;;;6.10;99.90;;;;;;4951858;29;20453;-77
2022/11/25 10:10:19;;;;;;;23.63;11.70;;;6.20;99.90;;;;;;4951714;29;20461;-77
2022/11/25 10:12:49;;;;;;;16.50;11.17;;;6.20;99.90;;;;;;4951930;29;20450;-77
2022/11/25 10:15:21;;;;;;;20.00;11.33;;;6.20;99.90;;;;;;4950615;29;20810;-78
2022/11/25 10:17:50;;;;;;;23.33;13.10;;;6.20;99.90;;;;;;4951237;29;20936;-77
2022/11/25 10:20:23;;;;;;;17.30;12.17;;;6.20;99.90;;;;;;4950874;28;20462;-77
2022/11/25 10:22:55;;;;;;;20.00;11.30;;;6.20;99.90;;;;;;4930623;29;21019;-78
2022/11/25 10:25:24;;;;;;;12.83;9.60;;;6.30;99.90;;;;;;4931588;29;20431;-77
2022/11/25 10:27:57;;;;;;;17.33;9.60;;;6.40;99.90;;;;;;4931520;29;20990;-77
2022/11/25 10:30:25;;;;;;;14.60;9.43;;;6.40;99.90;;;;;;4931581;29;20915;-77
2022/11/25 10:32:54;;;;;;;16.77;10.97;;;6.60;99.90;;;;;;4933387;29;20514;-77
2022/11/25 10:35:30;;;;;;;13.07;8.40;;;6.60;99.90;;;;;;4932582;29;20461;-77
2022/11/25 10:38:01;;;;;;;22.33;13.63;;;6.70;99.90;;;;;;4931568;29;20502;-77
2022/11/25 10:40:28;;;;;;;21.80;13.23;;;6.70;99.90;;;;;;4931976;29;20446;-77
2022/11/25 10:42:55;;;;;;;19.33;12.40;;;6.80;99.90;;;;;;4931520;29;20466;-78
2022/11/25 10:45:29;;;;;;;16.60;11.07;;;6.80;99.90;;;;;;4930776;29;20988;-78
2022/11/25 10:48:17;;;;;;;18.83;11.20;;;6.80;99.90;;;;;;4931210;29;20466;-78
2022/11/25 10:51:02;;;;;;;19.07;10.93;;;6.90;99.90;;;;;;4931101;29;20481;-78
2022/11/25 10:53:30;;;;;;;17.80;10.60;;;6.90;99.90;;;;;;4932225;29;20454;-78
2022/11/25 10:56:00;;;;;;;37.50;17.13;;;7.00;99.90;;;;;;4952691;28;20459;-78
2022/11/25 10:58:30;;;;;;;24.90;16.03;;;7.00;99.90;;;;;;4954136;28;20477;-78
2022/11/25 11:01:24;;;;;;;32.07;17.90;;;7.10;99.90;;;;;;4953074;28;20484;-78
2022/11/25 11:03:52;;;;;;;20.60;10.90;;;7.20;99.90;;;;;;4944027;28;20477;-78
2022/11/25 11:06:39;;;;;;;18.40;10.80;;;7.20;99.90;;;;;;4954229;28;20472;-78
2022/11/25 11:09:34;;;;;;;22.50;12.43;;;7.20;99.90;;;;;;4954578;28;20453;-78
2022/11/25 11:12:14;;;;;;;20.10;12.00;;;7.20;99.90;;;;;;4953787;28;20962;-77
2022/11/25 11:14:41;;;;;;;20.83;12.40;;;7.20;99.90;;;;;;4954426;28;21339;-77
2022/11/25 11:17:26;;;;;;;27.33;13.50;;;7.20;99.90;;;;;;4954526;29;20472;-78
2022/11/25 11:20:02;;;;;;;14.93;9.60;;;7.20;99.90;;;;;;4954760;29;20492;-78
2022/11/25 11:22:28;;;;;;;18.37;8.30;;;7.20;99.90;;;;;;4953638;28;20843;-77
2022/11/25 11:25:08;;;;;;;12.60;8.13;;;7.30;99.90;;;;;;4954623;29;20461;-76
2022/11/25 11:27:38;;;;;;;10.77;7.57;;;7.30;99.90;;;;;;4954628;29;20574;-77
2022/11/25 11:30:10;;;;;;;11.20;8.23;;;7.40;99.90;;;;;;4952284;29;20461;-78
2022/11/25 11:32:40;;;;;;;11.10;8.40;;;7.40;99.90;;;;;;4953293;29;20568;-77
2022/11/25 11:35:14;;;;;;;13.40;7.90;;;7.40;99.90;;;;;;4954403;29;20464;-76
2022/11/25 11:37:43;;;;;;;10.30;7.07;;;7.50;99.90;;;;;;4954120;29;20464;-76
2022/11/25 11:40:33;;;;;;;12.90;7.90;;;7.50;99.90;;;;;;4953893;29;20499;-76
2022/11/25 11:43:20;;;;;;;11.73;7.93;;;7.40;99.90;;;;;;4953365;29;20981;-77
2022/11/25 11:45:59;;;;;;;17.73;11.50;;;7.40;99.90;;;;;;4955081;29;20879;-77
2022/11/25 11:48:30;;;;;;;15.53;8.60;;;7.50;99.90;;;;;;4955479;29;20524;-77
2022/11/25 11:51:08;;;;;;;14.70;10.07;;;7.50;99.90;;;;;;4955241;28;20477;-78
2022/11/25 11:53:42;;;;;;;51.53;41.63;;;7.50;99.90;;;;;;4949465;29;20568;-78
2022/11/25 11:56:14;;;;;;;15.73;10.57;;;7.50;99.90;;;;;;4955677;29;20446;-78
2022/11/25 11:58:56;;;;;;;16.33;12.00;;;7.60;99.90;;;;;;4953681;29;20512;-77
2022/11/25 12:01:39;;;;;;;21.33;10.80;;;7.60;99.90;;;;;;4953589;28;20513;-77
2022/11/25 12:04:17;;;;;;;22.33;10.87;;;7.60;99.90;;;;;;4952894;29;20464;-77
2022/11/25 12:06:53;;;;;;;22.33;12.97;;;7.70;99.90;;;;;;4952055;28;20461;-77
2022/11/25 12:09:23;;;;;;;18.90;13.00;;;7.70;99.90;;;;;;4952550;29;20451;-77
2022/11/25 12:11:55;;;;;;;23.60;11.73;;;7.80;99.90;;;;;;4951563;28;20947;-76
2022/11/25 12:14:32;;;;;;;12.30;8.13;;;7.80;99.90;;;;;;4953802;29;20472;-77
2022/11/25 12:17:02;;;;;;;10.23;6.17;;;7.80;99.90;;;;;;4953055;29;20445;-77
2022/11/25 12:19:39;;;;;;;11.90;7.70;;;7.90;99.90;;;;;;4952004;29;20481;-77
2022/11/25 12:22:13;;;;;;;11.97;8.60;;;7.90;99.90;;;;;;4950486;29;20473;-78
2022/11/25 12:24:46;;;;;;;11.83;8.20;;;7.90;99.90;;;;;;4951261;29;20854;-77
2022/11/25 12:27:19;;;;;;;15.37;8.70;;;8.00;99.90;;;;;;4951537;29;20469;-78
2022/11/25 12:29:52;;;;;;;12.20;6.50;;;7.90;99.90;;;;;;4951112;29;20448;-77
2022/11/25 12:32:40;;;;;;;10.60;6.60;;;7.90;99.90;;;;;;4951016;29;20481;-77
2022/11/25 12:35:19;;;;;;;11.70;6.20;;;7.90;99.90;;;;;;4951123;29;20921;-78
2022/11/25 12:37:54;;;;;;;10.27;6.10;;;7.90;99.90;;;;;;4951335;29;20442;-76
2022/11/25 12:40:29;;;;;;;11.40;6.73;;;7.90;99.90;;;;;;4949810;28;20476;-78
2022/11/25 12:43:17;;;;;;;17.23;13.30;;;7.90;99.90;;;;;;4948804;29;20756;-75
2022/11/25 12:45:45;;;;;;;13.37;8.90;;;7.90;99.90;;;;;;4948805;29;20463;-76
2022/11/25 12:48:12;;;;;;;17.73;7.40;;;8.00;99.90;;;;;;4949115;29;20814;-76
2022/11/25 12:50:49;;;;;;;15.53;8.53;;;8.00;99.90;;;;;;4948812;28;20477;-76
2022/11/25 12:53:25;;;;;;;25.33;10.73;;;8.00;99.90;;;;;;4948400;29;20437;-75
2022/11/25 12:55:54;;;;;;;14.53;8.53;;;7.90;99.90;;;;;;4949368;29;20445;-76
2022/11/25 12:58:53;;;;;;;12.30;8.87;;;8.00;99.90;;;;;;4949729;29;20829;-76
2022/11/25 13:01:40;;;;;;;18.27;10.23;;;8.00;99.90;;;;;;4948090;28;20497;-76
2022/11/25 13:04:37;;;;;;;15.00;10.10;;;8.00;99.90;;;;;;4949184;29;20438;-75
2022/11/25 13:07:29;;;;;;;19.70;10.80;;;8.10;99.90;;;;;;4950190;29;20460;-77
2022/11/25 13:10:37;;;;;;;14.40;9.17;;;8.10;99.90;;;;;;4948737;29;20448;-76
2022/11/25 13:13:23;;;;;;;13.97;8.77;;;8.00;99.90;;;;;;4934684;28;20462;-77
2022/11/25 13:15:53;;;;;;;20.60;10.40;;;8.00;99.90;;;;;;4947821;29;20475;-77
2022/11/25 13:18:23;;;;;;;18.27;9.77;;;8.00;99.90;;;;;;4948671;28;20450;-73
2022/11/25 13:20:51;;;;;;;21.43;10.77;;;8.00;99.90;;;;;;4941497;28;20486;-75
2022/11/25 13:23:29;;;;;;;17.53;10.77;;;8.10;99.90;;;;;;4950126;29;20461;-77
2022/11/25 13:26:48;;;;;;;15.70;10.37;;;8.10;99.90;;;;;;4950548;29;20469;-76
2022/11/25 13:29:58;;;;;;;15.37;11.00;;;8.10;99.90;;;;;;4951054;29;20561;-79
2022/11/25 13:32:43;;;;;;;16.70;9.90;;;8.20;99.90;;;;;;4951920;29;20545;-78
2022/11/25 13:35:31;;;;;;;14.73;10.03;;;8.20;99.90;;;;;;4949137;29;20438;-77
2022/11/25 13:37:58;;;;;;;13.43;9.40;;;8.20;99.90;;;;;;4950007;29;20446;-78
2022/11/25 13:40:36;;;;;;;14.30;9.97;;;8.20;99.90;;;;;;4950125;28;20493;-79
2022/11/25 13:43:03;;;;;;;14.07;10.07;;;8.20;99.90;;;;;;4950438;29;20468;-79
2022/11/25 13:45:33;;;;;;;15.27;9.20;;;8.20;99.90;;;;;;4952005;29;20461;-77
2022/11/25 13:48:11;;;;;;;11.97;8.50;;;8.20;99.90;;;;;;4949873;28;20546;-78
2022/11/25 13:50:39;;;;;;;15.80;9.17;;;8.20;99.90;;;;;;4950360;28;20584;-78
2022/11/25 13:53:17;;;;;;;13.50;8.30;;;8.20;99.90;;;;;;4948000;29;20453;-77
2022/11/25 13:55:45;;;;;;;15.20;9.30;;;8.30;99.90;;;;;;4948733;29;20472;-77
2022/11/25 13:58:20;;;;;;;12.77;8.87;;;8.30;99.90;;;;;;4949269;29;20468;-79
2022/11/25 14:01:21;;;;;;;11.47;8.20;;;8.30;99.90;;;;;;4950158;28;20938;-78
2022/11/25 14:03:54;;;;;;;18.93;9.03;;;8.30;99.90;;;;;;4949754;29;20439;-79
2022/11/25 14:07:06;;;;;;;17.10;10.47;;;8.30;99.90;;;;;;4950947;29;20442;-79
2022/11/25 14:09:53;;;;;;;13.60;9.17;;;8.30;99.90;;;;;;4949076;29;20444;-78
2022/11/25 14:12:43;;;;;;;14.07;8.67;;;8.30;99.90;;;;;;4947389;29;20473;-77
2022/11/25 14:15:27;;;;;;;12.93;9.23;;;8.30;99.90;;;;;;4936562;29;20562;-76
2022/11/25 14:18:17;;;;;;;15.67;9.97;;;8.30;99.90;;;;;;4948114;29;20477;-77
2022/11/25 14:20:51;;;;;;;15.43;10.83;;;8.30;99.90;;;;;;4948861;28;20501;-78
2022/11/25 14:24:01;;;;;;;28.67;14.93;;;8.40;99.90;;;;;;4948373;29;20451;-78
2022/11/25 14:26:31;;;;;;;19.83;11.33;;;8.40;99.90;;;;;;4930243;29;20869;-77
2022/11/25 14:29:02;;;;;;;19.60;11.23;;;8.40;99.90;;;;;;4949272;28;20460;-76
2022/11/25 14:31:36;;;;;;;19.67;11.73;;;8.40;99.90;;;;;;4952556;29;20568;-76
2022/11/25 14:34:10;;;;;;;19.40;12.90;;;8.40;99.90;;;;;;4952052;29;20513;-76
2022/11/25 14:36:44;;;;;;;28.40;13.03;;;8.40;99.90;;;;;;4951543;29;20447;-77
2022/11/25 14:39:19;;;;;;;18.50;12.63;;;8.40;99.90;;;;;;4951384;29;20485;-75
2022/11/25 14:41:55;;;;;;;16.17;12.00;;;8.40;99.90;;;;;;4949806;29;20484;-77
2022/11/25 14:44:28;;;;;;;22.17;12.80;;;8.50;99.90;;;;;;4951636;29;20441;-76
2022/11/25 14:46:56;;;;;;;17.30;11.77;;;8.50;99.90;;;;;;4952100;28;20482;-77
2022/11/25 14:49:24;;;;;;;20.40;12.43;;;8.50;99.90;;;;;;4953248;29;20962;-78
2022/11/25 14:51:53;;;;;;;19.23;12.50;;;8.50;99.90;;;;;;4951379;29;20993;-77
2022/11/25 14:54:20;;;;;;;19.60;13.90;;;8.50;99.90;;;;;;4951202;28;20969;-77
2022/11/25 14:56:47;;;;;;;21.27;14.17;;;8.40;99.90;;;;;;4951907;28;20457;-77
2022/11/25 14:59:15;;;;;;;19.93;13.00;;;8.40;99.90;;;;;;4951382;28;20503;-77
2022/11/25 15:01:53;;;;;;;20.63;12.50;;;8.40;99.90;;;;;;4950353;28;20513;-77
2022/11/25 15:04:22;;;;;;;21.47;13.47;;;8.40;99.90;;;;;;4951072;28;20976;-77
2022/11/25 15:06:50;;;;;;;19.87;13.20;;;8.40;99.90;;;;;;4951281;28;20464;-77
2022/11/25 15:09:22;;;;;;;19.40;13.37;;;8.40;99.90;;;;;;4951019;28;20469;-77
2022/11/25 15:11:53;;;;;;;20.40;15.10;;;8.40;99.90;;;;;;4950652;28;20532;-76
2022/11/25 15:14:25;;;;;;;20.30;15.10;;;8.40;99.90;;;;;;4951296;28;20461;-78
2022/11/25 15:16:52;;;;;;;21.97;13.27;;;8.40;99.90;;;;;;4950739;28;20469;-77
2022/11/25 15:19:21;;;;;;;17.40;11.40;;;8.50;99.90;;;;;;4951287;28;20503;-77
2022/11/25 15:21:56;;;;;;;20.30;12.10;;;8.50;99.90;;;;;;4950301;28;20485;-77
2022/11/25 15:24:27;;;;;;;17.87;11.70;;;8.50;99.90;;;;;;4952590;28;20465;-77
2022/11/25 15:26:55;;;;;;;17.20;10.67;;;8.50;99.90;;;;;;4953421;28;20449;-76
2022/11/25 15:29:22;;;;;;;16.97;10.70;;;8.50;99.90;;;;;;4952583;28;20944;-77
2022/11/25 15:31:51;;;;;;;18.40;11.03;;;8.50;99.90;;;;;;4948323;28;21055;-77
2022/11/25 15:34:19;;;;;;;21.43;10.50;;;8.50;99.90;;;;;;4950382;29;20457;-77
2022/11/25 15:36:47;;;;;;;18.07;11.87;;;8.40;99.90;;;;;;4951908;29;20457;-78
2022/11/25 15:39:16;;;;;;;14.97;10.73;;;8.40;99.90;;;;;;4951464;29;20493;-77
2022/11/25 15:41:47;;;;;;;17.67;10.93;;;8.40;99.90;;;;;;4949649;28;20481;-77
2022/11/25 15:44:21;;;;;;;17.70;11.47;;;8.40;99.90;;;;;;4951373;29;20446;-78
2022/11/25 15:46:54;;;;;;;16.00;12.07;;;8.40;99.90;;;;;;4951510;29;20816;-76
2022/11/25 15:49:22;;;;;;;25.53;13.03;;;8.40;99.90;;;;;;4951490;29;20465;-77
2022/11/25 15:51:52;;;;;;;20.23;13.23;;;8.50;99.90;;;;;;4950909;28;20481;-76
2022/11/25 15:54:22;;;;;;;18.57;14.07;;;8.40;99.90;;;;;;4951818;29;20442;-80
2022/11/25 15:56:52;;;;;;;22.30;13.27;;;8.50;99.90;;;;;;4950736;28;20465;-78
2022/11/25 15:59:45;;;;;;;18.80;12.53;;;8.50;99.90;;;;;;4949503;29;20486;-78
2022/11/25 16:02:33;;;;;;;27.60;19.33;;;8.50;99.90;;;;;;4950482;28;20492;-78
2022/11/25 16:05:27;;;;;;;37.47;26.17;;;8.50;99.90;;;;;;4951208;29;20453;-78
2022/11/25 16:07:59;;;;;;;29.10;22.90;;;8.50;99.90;;;;;;4952140;29;20445;-74
2022/11/25 16:10:30;;;;;;;27.47;19.77;;;8.50;99.90;;;;;;4951414;28;20915;-75
2022/11/25 16:13:30;;;;;;;24.70;18.17;;;8.50;99.90;;;;;;4950666;29;20851;-75
2022/11/25 16:16:00;;;;;;;31.63;19.90;;;8.50;99.90;;;;;;4951549;29;20965;-75
2022/11/25 16:18:31;;;;;;;31.33;20.30;;;8.40;99.90;;;;;;4951491;28;21289;-75
2022/11/25 16:21:02;;;;;;;26.50;18.37;;;8.40;99.90;;;;;;4951485;28;20501;-75
2022/11/25 16:23:29;;;;;;;27.27;16.63;;;8.40;99.90;;;;;;4950884;29;20434;-75
2022/11/25 16:26:01;;;;;;;20.20;15.80;;;8.30;99.90;;;;;;4951233;29;20468;-75
2022/11/25 16:28:29;;;;;;;20.77;15.00;;;8.40;99.90;;;;;;4949884;29;20446;-75
2022/11/25 16:30:58;;;;;;;21.03;14.40;;;8.30;99.90;;;;;;4951266;28;20480;-75
2022/11/25 16:33:25;;;;;;;24.50;14.90;;;8.40;99.90;;;;;;4950375;29;20465;-74
2022/11/25 16:35:52;;;;;;;24.00;14.90;;;8.40;99.90;;;;;;4950870;29;20457;-75
2022/11/25 16:38:19;;;;;;;24.13;15.47;;;8.40;99.90;;;;;;4950580;29;20977;-75
2022/11/25 16:40:46;;;;;;;25.40;15.30;;;8.40;99.90;;;;;;4950588;28;20881;-75
2022/11/25 16:43:18;;;;;;;26.90;15.47;;;8.40;99.90;;;;;;4950304;29;20472;-75
2022/11/25 16:45:49;;;;;;;24.93;17.50;;;8.40;99.90;;;;;;4950899;29;20446;-75
2022/11/25 16:48:17;;;;;;;25.80;16.73;;;8.40;99.90;;;;;;4950872;29;20453;-75
2022/11/25 16:50:44;;;;;;;26.40;16.60;;;8.40;99.90;;;;;;4950182;28;20861;-75
2022/11/25 16:53:11;;;;;;;24.67;16.80;;;8.40;99.90;;;;;;4950168;28;20462;-75
2022/11/25 16:55:43;;;;;;;27.10;18.20;;;8.40;99.90;;;;;;4950571;29;20481;-75
2022/11/25 16:58:17;;;;;;;25.27;18.53;;;8.40;99.90;;;;;;4950342;29;20454;-75
2022/11/25 17:00:49;;;;;;;26.83;18.17;;;8.40;99.90;;;;;;4949502;28;20497;-75
2022/11/25 17:03:16;;;;;;;26.97;18.73;;;8.40;99.90;;;;;;4949344;29;20516;-75
2022/11/25 17:05:44;;;;;;;24.20;17.33;;;8.40;99.90;;;;;;4949803;29;20809;-75
2022/11/25 17:08:11;;;;;;;33.07;17.37;;;8.30;99.90;;;;;;4950305;29;20465;-74
2022/11/25 17:10:38;;;;;;;28.30;19.63;;;8.30;99.90;;;;;;4950045;28;20477;-77
2022/11/25 17:13:05;;;;;;;30.40;20.57;;;8.30;99.90;;;;;;4949675;29;20467;-75
2022/11/25 17:15:33;;;;;;;24.80;18.97;;;8.30;99.90;;;;;;4949812;29;20461;-75
2022/11/25 17:18:03;;;;;;;29.60;20.23;;;8.20;99.90;;;;;;4949221;29;20457;-75
2022/11/25 17:20:30;;;;;;;30.43;21.90;;;8.20;99.90;;;;;;4949683;28;20493;-77
2022/11/25 17:22:58;;;;;;;26.73;19.50;;;8.30;99.90;;;;;;4949019;29;20942;-75
2022/11/25 17:25:26;;;;;;;43.93;27.53;;;8.20;99.90;;;;;;4949754;29;20525;-75
2022/11/25 17:27:54;;;;;;;37.47;23.50;;;8.30;99.90;;;;;;4949862;29;20469;-75
2022/11/25 17:30:23;;;;;;;36.17;23.30;;;8.20;99.90;;;;;;4946968;28;20461;-74
2022/11/25 17:32:57;;;;;;;37.50;24.77;;;8.20;99.90;;;;;;4949294;29;20462;-74
2022/11/25 17:35:25;;;;;;;37.53;24.30;;;8.10;99.90;;;;;;4950196;29;20454;-74
2022/11/25 17:37:52;;;;;;;34.37;24.27;;;8.20;99.90;;;;;;4950341;29;20469;-75
2022/11/25 17:40:19;;;;;;;47.33;25.73;;;8.20;99.90;;;;;;4949866;28;20489;-74
2022/11/25 17:42:47;;;;;;;33.57;24.63;;;8.20;99.90;;;;;;4949340;29;20457;-74
2022/11/25 17:45:16;;;;;;;36.70;23.73;;;8.20;99.90;;;;;;4949734;29;20476;-74
2022/11/25 17:47:43;;;;;;;37.70;26.20;;;8.20;99.90;;;;;;4948794;29;20858;-74
2022/11/25 17:50:18;;;;;;;46.13;28.47;;;8.20;99.90;;;;;;4948903;29;20954;-74
2022/11/25 17:52:47;;;;;;;33.93;23.67;;;8.10;99.90;;;;;;4947955;29;20490;-74
2022/11/25 17:55:18;;;;;;;41.10;28.97;;;8.10;99.90;;;;;;4948768;29;20470;-74
2022/11/25 17:57:45;;;;;;;47.03;29.10;;;8.20;99.90;;;;;;4948334;29;20466;-74
2022/11/25 18:00:14;;;;;;;44.50;29.37;;;8.20;99.90;;;;;;4948923;29;21036;-75
2022/11/25 18:02:41;;;;;;;37.70;25.90;;;8.10;99.90;;;;;;4948578;28;20471;-75
2022/11/25 18:05:14;;;;;;;39.20;26.13;;;8.10;99.90;;;;;;4948239;29;20836;-74
2022/11/25 18:07:42;;;;;;;44.83;29.90;;;8.10;99.90;;;;;;4948995;29;20457;-74
2022/11/25 18:10:12;;;;;;;44.03;28.73;;;8.10;99.90;;;;;;4949038;29;20462;-74